Time;durP1;ratioP1;P1;durP2;ratioP2;P2;SDS_P1;SDS_P2;PMS_P1;PMS_P2;Temp;Humidity;BMP_temperature;BMP_pressure;BME280_temperature;BME280_humidity;BME280_pressure;Samples;Min_cycle;Max_cycle;Signal;HPM_P1;HPM_P2
2022/06/20 00:02:25;;;;;;;8.10;1.90;;;13.10;99.90;;;;;;5095518;28;20047;-64
2022/06/20 00:04:53;;;;;;;8.35;2.30;;;13.00;99.90;;;;;;5094977;28;20548;-64
2022/06/20 00:07:19;;;;;;;11.25;2.40;;;13.10;99.90;;;;;;5095078;28;20059;-65
2022/06/20 00:09:45;;;;;;;8.18;1.92;;;13.00;99.90;;;;;;5094940;28;20037;-64
2022/06/20 00:12:22;;;;;;;6.80;1.98;;;13.00;99.90;;;;;;5093590;28;20040;-64
2022/06/20 00:14:51;;;;;;;6.80;2.07;;;13.00;99.90;;;;;;5094938;28;20051;-64
2022/06/20 00:17:17;;;;;;;9.02;2.33;;;13.00;99.90;;;;;;5094992;28;20040;-64
2022/06/20 00:19:43;;;;;;;7.80;2.28;;;13.00;99.90;;;;;;5076833;28;20126;-64
2022/06/20 00:22:10;;;;;;;8.13;2.35;;;13.00;99.90;;;;;;5095014;28;20091;-64
2022/06/20 00:24:35;;;;;;;10.80;2.53;;;12.90;99.90;;;;;;5076792;28;20040;-65
2022/06/20 00:27:06;;;;;;;7.55;2.00;;;12.80;99.90;;;;;;5094680;28;20032;-64
2022/06/20 00:29:32;;;;;;;8.35;2.25;;;;;;;;;;5094925;28;20044;-64
2022/06/20 00:31:57;;;;;;;6.90;2.17;;;12.80;99.90;;;;;;5094794;28;20509;-65
2022/06/20 00:34:23;;;;;;;8.93;2.40;;;12.80;99.90;;;;;;5094704;28;20047;-64
2022/06/20 00:36:49;;;;;;;9.43;2.58;;;12.70;99.90;;;;;;5094470;28;20123;-64
2022/06/20 00:39:15;;;;;;;5.60;2.40;;;12.70;99.90;;;;;;5094311;28;20044;-64
2022/06/20 00:41:42;;;;;;;7.68;2.10;;;12.60;99.90;;;;;;5093113;28;20036;-64
2022/06/20 00:44:14;;;;;;;5.00;2.10;;;12.60;99.90;;;;;;5094196;28;20052;-64
2022/06/20 00:46:44;;;;;;;8.02;2.67;;;12.70;99.90;;;;;;5094431;28;20479;-64
2022/06/20 00:49:24;;;;;;;7.13;2.17;;;12.70;99.90;;;;;;5094289;28;20036;-64
2022/06/20 00:52:12;;;;;;;7.78;1.92;;;12.70;99.90;;;;;;5076221;28;20048;-64
2022/06/20 00:54:47;;;;;;;5.93;2.55;;;12.70;99.90;;;;;;5094358;28;20101;-64
2022/06/20 00:57:22;;;;;;;6.53;2.33;;;12.60;99.90;;;;;;5094221;28;20119;-65
2022/06/20 00:59:58;;;;;;;5.05;2.22;;;12.70;99.90;;;;;;5094187;28;20058;-64
2022/06/20 01:02:27;;;;;;;7.53;2.30;;;12.60;99.90;;;;;;5094064;28;20097;-64
2022/06/20 01:04:59;;;;;;;6.15;2.10;;;12.60;99.90;;;;;;5094298;28;20044;-65
2022/06/20 01:07:35;;;;;;;5.68;2.05;;;12.60;99.90;;;;;;5094235;28;20466;-65
2022/06/20 01:10:01;;;;;;;6.43;2.10;;;12.70;99.90;;;;;;5093949;28;20128;-64
2022/06/20 01:12:29;;;;;;;8.27;2.35;;;12.70;99.90;;;;;;5093847;28;20070;-64
2022/06/20 01:14:55;;;;;;;5.25;2.22;;;12.70;99.90;;;;;;5075580;28;20487;-64
2022/06/20 01:17:37;;;;;;;7.30;2.20;;;12.70;99.90;;;;;;5093496;28;20089;-65
2022/06/20 01:20:20;;;;;;;7.80;2.33;;;12.60;99.90;;;;;;5093790;28;20040;-64
2022/06/20 01:23:02;;;;;;;6.15;2.30;;;12.70;99.90;;;;;;5093394;28;20046;-64
2022/06/20 01:25:59;;;;;;;9.43;2.40;;;12.60;99.90;;;;;;5093604;28;20044;-65
2022/06/20 01:28:32;;;;;;;4.75;2.30;;;12.60;99.90;;;;;;5085674;28;20066;-64
2022/06/20 01:30:59;;;;;;;7.38;2.53;;;12.60;99.90;;;;;;5093654;28;20372;-65
2022/06/20 01:33:26;;;;;;;9.85;2.70;;;12.60;99.90;;;;;;5093910;28;20597;-64
2022/06/20 01:38:39;;;;;;;7.47;2.78;;;12.60;99.90;;;;;;5093545;28;20131;-64
2022/06/20 01:43:52;;;;;;;5.88;2.35;;;12.70;99.90;;;;;;5093916;28;20522;-65
2022/06/20 01:46:18;;;;;;;6.93;2.63;;;12.70;99.90;;;;;;5094730;28;20055;-64
2022/06/20 01:48:51;;;;;;;6.38;2.58;;;12.70;99.90;;;;;;5075293;28;20139;-64
2022/06/20 01:51:30;;;;;;;9.02;2.72;;;12.70;99.90;;;;;;5130763;22;20050;-49
2022/06/20 01:53:57;;;;;;;8.88;2.35;;;12.60;99.90;;;;;;5105718;28;20051;-50
2022/06/20 01:56:25;;;;;;;7.78;2.30;;;12.70;99.90;;;;;;5079542;28;20394;-48
2022/06/20 01:58:57;;;;;;;6.13;2.20;;;12.70;99.90;;;;;;5092961;28;20494;-50
2022/06/20 02:01:24;;;;;;;6.65;2.33;;;12.70;99.90;;;;;;5113328;28;20047;-51
2022/06/20 02:03:49;;;;;;;4.78;2.25;;;12.70;99.90;;;;;;5113259;28;20043;-51
2022/06/20 02:06:18;;;;;;;9.52;3.08;;;12.70;99.90;;;;;;5113301;28;20481;-49
2022/06/20 02:08:48;;;;;;;8.00;2.50;;;12.80;99.90;;;;;;5101521;28;20048;-52
2022/06/20 02:11:32;;;;;;;8.05;2.58;;;13.00;99.90;;;;;;5093064;28;20051;-49
2022/06/20 02:14:17;;;;;;;8.35;2.47;;;12.90;99.90;;;;;;5092924;28;20044;-53
2022/06/20 02:16:47;;;;;;;7.97;2.40;;;12.90;99.90;;;;;;5092871;28;20044;-51
2022/06/20 02:19:18;;;;;;;8.43;2.53;;;12.90;99.90;;;;;;5092807;28;20093;-53
2022/06/20 02:21:45;;;;;;;8.55;2.85;;;12.80;99.90;;;;;;5092674;28;20481;-53
2022/06/20 02:24:14;;;;;;;6.67;2.30;;;12.80;99.90;;;;;;5092845;28;20052;-52
2022/06/20 02:26:43;;;;;;;7.05;2.15;;;12.80;99.90;;;;;;5111763;28;20047;-49
2022/06/20 02:29:24;;;;;;;7.13;2.08;;;12.80;99.90;;;;;;5112993;28;20050;-48
2022/06/20 02:31:55;;;;;;;5.85;2.30;;;12.80;99.90;;;;;;5112964;28;20520;-50
2022/06/20 02:34:24;;;;;;;6.10;2.40;;;12.90;99.90;;;;;;5113165;28;20485;-49
2022/06/20 02:36:50;;;;;;;9.57;2.72;;;12.80;99.90;;;;;;5116878;28;20058;-52
2022/06/20 02:39:17;;;;;;;8.80;2.70;;;12.80;99.90;;;;;;5117038;28;20092;-49
2022/06/20 02:41:46;;;;;;;4.80;2.15;;;12.80;99.90;;;;;;5116582;28;20374;-48
2022/06/20 02:44:17;;;;;;;7.57;2.58;;;12.80;99.90;;;;;;5116638;28;20050;-49
2022/06/20 02:46:46;;;;;;;6.53;2.22;;;12.90;99.90;;;;;;5116802;28;21078;-50
2022/06/20 02:49:14;;;;;;;10.15;2.50;;;13.00;99.90;;;;;;5116846;28;20044;-48
2022/06/20 02:51:45;;;;;;;5.50;2.42;;;13.00;99.90;;;;;;5116317;28;20044;-52
2022/06/20 02:54:13;;;;;;;6.78;2.50;;;13.00;99.90;;;;;;5116524;28;20054;-48
2022/06/20 02:56:44;;;;;;;7.65;2.50;;;12.90;99.90;;;;;;5116578;28;20478;-48
2022/06/20 02:59:17;;;;;;;3.65;2.00;;;13.00;99.90;;;;;;5111061;28;20040;-53
2022/06/20 03:01:49;;;;;;;6.85;2.15;;;12.90;99.90;;;;;;5095991;28;20044;-49
2022/06/20 03:04:16;;;;;;;7.75;2.75;;;12.80;99.90;;;;;;5096138;28;20040;-49
2022/06/20 03:06:47;;;;;;;7.07;2.33;;;12.80;99.90;;;;;;5095887;28;20043;-48
2022/06/20 03:09:17;;;;;;;6.82;2.38;;;12.70;99.90;;;;;;5095970;28;20055;-48
2022/06/20 03:11:43;;;;;;;6.97;2.53;;;12.70;99.90;;;;;;5095871;28;20043;-51
2022/06/20 03:14:13;;;;;;;7.90;2.30;;;12.60;99.90;;;;;;5095489;28;20039;-49
2022/06/20 03:16:39;;;;;;;6.28;2.17;;;12.80;99.90;;;;;;5095937;28;20036;-50
2022/06/20 03:19:11;;;;;;;7.25;2.40;;;12.80;99.90;;;;;;5095587;28;20509;-48
2022/06/20 03:21:39;;;;;;;9.05;2.60;;;12.90;99.90;;;;;;5095719;28;20040;-50
2022/06/20 03:24:06;;;;;;;5.93;2.63;;;12.70;99.90;;;;;;5095402;28;20040;-48
2022/06/20 03:26:32;;;;;;;8.63;2.60;;;12.70;99.90;;;;;;5095435;28;20138;-53
2022/06/20 03:28:58;;;;;;;6.28;2.55;;;12.80;99.90;;;;;;5095635;28;20089;-50
2022/06/20 03:31:24;;;;;;;9.48;2.90;;;12.70;99.90;;;;;;5095377;28;20048;-51
2022/06/20 03:33:50;;;;;;;10.52;3.20;;;12.70;99.90;;;;;;5095483;28;20047;-48
2022/06/20 03:36:22;;;;;;;6.07;2.10;;;12.60;99.90;;;;;;5077315;28;20047;-49
2022/06/20 03:38:49;;;;;;;6.78;2.60;;;12.70;99.90;;;;;;5095014;28;20052;-49
2022/06/20 03:41:18;;;;;;;6.20;2.33;;;12.60;99.90;;;;;;5095021;28;20127;-50
2022/06/20 03:43:50;;;;;;;5.63;2.33;;;12.70;99.90;;;;;;5095264;28;20093;-52
2022/06/20 03:46:25;;;;;;;8.13;2.40;;;12.70;99.90;;;;;;5094832;28;20127;-50
2022/06/20 03:49:23;;;;;;;5.85;2.75;;;12.70;99.90;;;;;;5095205;28;20036;-49
2022/06/20 03:52:13;;;;;;;8.80;2.40;;;12.60;99.90;;;;;;5094610;28;20460;-49
2022/06/20 03:54:57;;;;;;;7.72;2.60;;;12.70;99.90;;;;;;5094453;28;20056;-49
2022/06/20 03:57:32;;;;;;;6.68;2.78;;;12.60;99.90;;;;;;5094940;28;20040;-51
2022/06/20 04:00:10;;;;;;;7.05;2.97;;;12.60;99.90;;;;;;5094848;28;20056;-49
2022/06/20 04:02:55;;;;;;;9.93;2.75;;;12.70;99.90;;;;;;5094977;28;20040;-50
2022/06/20 04:05:40;;;;;;;5.70;2.75;;;12.70;99.90;;;;;;5094932;28;20107;-49
2022/06/20 04:08:19;;;;;;;8.98;2.67;;;12.80;99.90;;;;;;5094618;28;20624;-52
2022/06/20 04:10:58;;;;;;;7.63;2.95;;;12.90;99.90;;;;;;5094837;28;20048;-52
2022/06/20 04:13:29;;;;;;;6.93;2.58;;;12.90;99.90;;;;;;5094808;28;20402;-49
2022/06/20 04:16:04;;;;;;;9.90;2.95;;;12.90;99.90;;;;;;5094635;28;20055;-52
2022/06/20 04:18:48;;;;;;;8.95;3.20;;;12.80;99.90;;;;;;5076138;28;20048;-52
2022/06/20 04:21:23;;;;;;;7.88;3.20;;;12.70;99.90;;;;;;5094554;28;20044;-53
2022/06/20 04:24:05;;;;;;;8.40;3.80;;;12.70;99.90;;;;;;5076382;28;20072;-51
2022/06/20 04:27:20;;;;;;;7.10;2.85;;;12.70;99.90;;;;;;5094423;28;20051;-50
2022/06/20 04:30:08;;;;;;;8.82;2.90;;;12.70;99.90;;;;;;5012254;28;20054;-50
2022/06/20 04:32:56;;;;;;;9.02;3.17;;;12.80;99.90;;;;;;5012058;28;20060;-50
2022/06/20 04:35:31;;;;;;;6.28;2.80;;;12.80;99.90;;;;;;4995827;28;20045;-49
2022/06/20 04:38:03;;;;;;;8.70;2.75;;;13.80;99.90;;;;;;5012059;28;20100;-50
2022/06/20 04:40:39;;;;;;;6.38;2.20;;;15.10;99.90;;;;;;5011969;28;20046;-48
2022/06/20 04:43:26;;;;;;;8.80;2.40;;;17.30;99.90;;;;;;5011984;28;20053;-50
2022/06/20 04:46:02;;;;;;;3.95;2.42;;;18.50;99.90;;;;;;5011911;28;20062;-51
2022/06/20 04:48:28;;;;;;;6.65;2.47;;;19.50;99.90;;;;;;5011884;28;20489;-52
2022/06/20 04:51:08;;;;;;;5.38;2.15;;;19.50;99.90;;;;;;5011577;28;20048;-49
2022/06/20 04:53:39;;;;;;;8.25;2.10;;;20.10;99.90;;;;;;5011923;28;20045;-48
2022/06/20 04:56:06;;;;;;;5.80;2.20;;;;;;;;;;5011870;28;20511;-48
2022/06/20 04:58:38;;;;;;;5.20;1.90;;;21.10;99.90;;;;;;5010921;28;20050;-53
2022/06/20 05:01:07;;;;;;;6.63;1.88;;;21.50;99.90;;;;;;5011607;28;20081;-52
2022/06/20 05:03:39;;;;;;;4.88;2.00;;;21.50;99.90;;;;;;5011634;28;20400;-50
2022/06/20 05:06:09;;;;;;;7.47;2.35;;;21.20;99.90;;;;;;5087436;28;20060;-49
2022/06/20 05:08:39;;;;;;;6.45;2.30;;;21.10;99.90;;;;;;5093617;28;20119;-47
2022/06/20 05:11:23;;;;;;;8.18;2.20;;;20.60;99.90;;;;;;5093667;28;20127;-48
2022/06/20 05:14:00;;;;;;;6.60;2.22;;;21.30;99.90;;;;;;5093545;28;20116;-50
2022/06/20 05:16:28;;;;;;;;;;;22.20;99.90;;;;;;5075771;28;20436;-48
2022/06/20 05:18:59;;;;;;;8.10;2.35;;;22.30;99.90;;;;;;5093108;28;20011;-47
2022/06/20 05:21:29;;;;;;;5.95;2.10;;;22.50;99.90;;;;;;5093528;28;20112;-49
2022/06/20 05:23:58;;;;;;;5.07;2.30;;;22.90;99.90;;;;;;5093115;28;20040;-51
2022/06/20 05:26:32;;;;;;;6.78;1.90;;;23.60;99.90;;;;;;5093331;28;20383;-49
2022/06/20 05:29:01;;;;;;;6.07;2.10;;;23.90;99.90;;;;;;5093410;28;20068;-48
2022/06/20 05:31:34;;;;;;;6.50;2.08;;;24.20;99.60;;;;;;5093150;28;20040;-51
2022/06/20 05:34:09;;;;;;;4.90;1.60;;;24.50;98.30;;;;;;5093208;28;20490;-50
2022/06/20 05:37:13;;;;;;;7.40;2.22;;;24.30;95.10;;;;;;5093288;28;20070;-50
2022/06/20 05:39:46;;;;;;;5.90;1.70;;;24.70;95.50;;;;;;5011068;28;20516;-51
2022/06/20 05:42:14;;;;;;;6.45;1.77;;;24.20;92.20;;;;;;5011035;28;20416;-50
2022/06/20 05:44:40;;;;;;;4.05;1.92;;;24.80;92.20;;;;;;5011072;28;20084;-50
2022/06/20 05:47:15;;;;;;;5.95;1.70;;;25.10;92.70;;;;;;5010948;28;20085;-51
2022/06/20 05:49:48;;;;;;;4.65;1.58;;;25.20;92.80;;;;;;5011139;28;20492;-52
2022/06/20 05:52:22;;;;;;;6.20;1.92;;;25.40;90.60;;;;;;4999712;28;20055;-51
2022/06/20 05:55:21;;;;;;;4.40;1.50;;;25.70;90.60;;;;;;4991310;28;20125;-51
2022/06/20 05:57:50;;;;;;;6.25;2.00;;;;;;;;;;4991374;28;20078;-51
2022/06/20 06:00:16;;;;;;;6.63;2.47;;;26.00;95.20;;;;;;4991270;28;20058;-50
2022/06/20 06:02:56;;;;;;;6.25;1.75;;;26.00;90.00;;;;;;4991324;28;20042;-51
2022/06/20 06:05:31;;;;;;;5.60;1.90;;;26.20;90.20;;;;;;4991208;28;20115;-52
2022/06/20 06:08:18;;;;;;;5.65;1.80;;;25.50;85.00;;;;;;4991283;28;20445;-48
2022/06/20 06:10:53;;;;;;;5.15;2.00;;;25.50;85.20;;;;;;4995297;28;20053;-49
2022/06/20 06:13:23;;;;;;;4.97;1.85;;;24.60;83.90;;;;;;5018981;28;20053;-51
2022/06/20 06:18:45;;;;;;;5.57;1.60;;;24.50;85.70;;;;;;5056622;28;20189;-53
2022/06/20 06:21:10;;;;;;;4.55;1.90;;;24.60;83.70;;;;;;5057140;28;20056;-51
2022/06/20 06:23:38;;;;;;;7.85;1.80;;;25.10;85.30;;;;;;5056469;28;20037;-48
2022/06/20 06:26:03;;;;;;;5.18;2.17;;;25.30;84.70;;;;;;5056639;28;20045;-50
2022/06/20 06:28:29;;;;;;;5.30;1.90;;;25.70;82.90;;;;;;5056568;28;20052;-50
2022/06/20 06:31:17;;;;;;;7.45;2.00;;;26.20;81.70;;;;;;5056494;28;20041;-51
2022/06/20 06:34:13;;;;;;;3.22;1.65;;;26.70;82.00;;;;;;5056804;28;20184;-49
2022/06/20 06:36:44;;;;;;;4.93;1.97;;;26.70;78.20;;;;;;5056383;28;20143;-52
2022/06/20 06:39:22;;;;;;;6.47;2.00;;;26.20;76.40;;;;;;5056057;28;20514;-50
2022/06/20 06:41:51;;;;;;;5.40;2.17;;;25.30;80.10;;;;;;5056280;28;20053;-50
2022/06/20 06:44:24;;;;;;;5.70;1.88;;;25.50;80.40;;;;;;5055950;28;20052;-50
2022/06/20 06:46:52;;;;;;;4.25;1.73;;;25.30;78.70;;;;;;5055982;28;20045;-50
2022/06/20 06:49:39;;;;;;;5.00;1.92;;;24.70;77.60;;;;;;5056034;28;20056;-50
2022/06/20 06:52:23;;;;;;;5.50;1.95;;;22.70;77.20;;;;;;5075771;28;20073;-52
2022/06/20 06:55:00;;;;;;;4.28;1.55;;;22.90;81.70;;;;;;5096156;28;20136;-52
2022/06/20 06:57:47;;;;;;;5.75;2.00;;;21.40;81.70;;;;;;5096282;28;20407;-50
2022/06/20 07:00:15;;;;;;;;;;;21.20;84.10;;;;;;5096657;28;20051;-49
2022/06/20 07:02:51;;;;;;;5.07;2.35;;;20.70;86.90;;;;;;5096073;28;20011;-48
2022/06/20 07:05:26;;;;;;;5.15;2.28;;;20.60;88.00;;;;;;5096106;28;20040;-47
2022/06/20 07:07:58;;;;;;;6.88;2.25;;;20.50;88.20;;;;;;5096094;28;20146;-50
2022/06/20 07:10:33;;;;;;;5.68;2.53;;;21.40;87.20;;;;;;5095923;28;20040;-51
2022/06/20 07:13:04;;;;;;;5.97;2.47;;;21.30;86.70;;;;;;5096112;28;20103;-53
2022/06/20 07:15:32;;;;;;;8.23;2.45;;;22.60;88.00;;;;;;5095859;28;20418;-51
2022/06/20 07:18:04;;;;;;;6.55;2.28;;;22.70;86.50;;;;;;5095779;28;20520;-51
2022/06/20 07:20:39;;;;;;;7.70;2.80;;;22.40;84.20;;;;;;5095107;28;20051;-50
2022/06/20 07:23:09;;;;;;;6.57;2.50;;;22.50;83.50;;;;;;5095554;28;20036;-50
2022/06/20 07:25:39;;;;;;;4.75;2.13;;;23.10;83.70;;;;;;5095662;28;20052;-48
2022/06/20 07:28:14;;;;;;;8.13;2.40;;;23.60;83.60;;;;;;5095407;28;20047;-50
2022/06/20 07:31:21;;;;;;;6.53;2.75;;;22.60;82.50;;;;;;5095680;28;20044;-51
2022/06/20 07:33:48;;;;;;;6.22;2.50;;;23.20;82.60;;;;;;5055520;28;20102;-49
2022/06/20 07:36:19;;;;;;;8.88;2.75;;;22.30;81.10;;;;;;5095253;28;20044;-54
2022/06/20 07:38:59;;;;;;;8.48;2.72;;;22.10;82.50;;;;;;5095191;28;20047;-49
2022/06/20 07:41:40;;;;;;;7.13;2.75;;;21.50;84.60;;;;;;5095380;28;20122;-53
2022/06/20 07:44:12;;;;;;;9.30;2.50;;;20.90;84.90;;;;;;5095291;28;20047;-49
2022/06/20 07:46:43;;;;;;;9.95;2.65;;;19.40;88.70;;;;;;5095115;28;20040;-49
2022/06/20 07:49:16;;;;;;;9.20;2.75;;;19.40;90.00;;;;;;5077355;28;20115;-52
2022/06/20 07:51:44;;;;;;;12.65;2.95;;;19.10;91.10;;;;;;5094971;28;20087;-52
2022/06/20 07:54:39;;;;;;;6.05;2.65;;;19.30;92.20;;;;;;5095083;28;20036;-51
2022/06/20 07:57:19;;;;;;;5.78;2.15;;;19.60;91.80;;;;;;5094867;28;20040;-48
2022/06/20 08:00:04;;;;;;;5.03;2.10;;;19.50;91.20;;;;;;5095115;28;20087;-49
2022/06/20 08:02:42;;;;;;;5.80;2.00;;;20.00;91.60;;;;;;5076721;28;20044;-47
2022/06/20 08:05:15;;;;;;;6.60;2.30;;;20.10;90.70;;;;;;5094811;28;20101;-49
2022/06/20 08:07:47;;;;;;;6.60;2.70;;;20.10;91.00;;;;;;5094866;28;20115;-48
2022/06/20 08:10:34;;;;;;;5.88;2.50;;;20.30;91.10;;;;;;5094945;28;20051;-49
2022/06/20 08:13:25;;;;;;;7.22;2.22;;;19.50;90.60;;;;;;5094807;28;20043;-50
2022/06/20 08:16:11;;;;;;;7.72;2.55;;;18.90;91.30;;;;;;5094461;28;20048;-48
2022/06/20 08:18:37;;;;;;;6.95;2.50;;;18.90;91.50;;;;;;5094604;28;20040;-49
2022/06/20 08:21:16;;;;;;;7.57;2.47;;;19.20;92.10;;;;;;5094538;28;20073;-48
2022/06/20 08:23:57;;;;;;;7.68;2.28;;;19.20;92.00;;;;;;5094481;28;20052;-52
2022/06/20 08:26:28;;;;;;;4.07;2.00;;;19.50;90.70;;;;;;5094302;28;20039;-48
2022/06/20 08:28:58;;;;;;;6.18;2.10;;;19.60;90.60;;;;;;5094434;28;20048;-49
2022/06/20 08:31:31;;;;;;;5.82;2.10;;;19.70;90.30;;;;;;5094235;28;20047;-48
2022/06/20 08:34:05;;;;;;;4.85;2.38;;;19.90;90.70;;;;;;5093727;28;20513;-49
2022/06/20 08:36:42;;;;;;;4.70;1.90;;;20.10;90.50;;;;;;5094292;28;20048;-49
2022/06/20 08:39:12;;;;;;;5.38;2.10;;;20.10;90.50;;;;;;5094005;28;20044;-47
2022/06/20 08:42:02;;;;;;;5.68;2.00;;;19.70;90.00;;;;;;5094007;28;20616;-48
2022/06/20 08:45:09;;;;;;;9.85;2.47;;;19.70;91.30;;;;;;5094100;28;20055;-48
2022/06/20 08:47:59;;;;;;;9.65;2.00;;;20.00;91.30;;;;;;5094145;28;20055;-49
2022/06/20 08:50:50;;;;;;;8.05;2.22;;;20.20;90.40;;;;;;5093976;28;20093;-51
2022/06/20 08:53:40;;;;;;;4.18;1.90;;;20.00;90.90;;;;;;5090445;27;20393;-48
2022/06/20 08:56:33;;;;;;;6.57;2.30;;;20.40;89.90;;;;;;5090342;28;20399;-51
2022/06/20 08:59:18;;;;;;;7.47;2.10;;;20.60;89.40;;;;;;5090411;28;20402;-53
2022/06/20 09:02:05;;;;;;;5.30;1.88;;;20.90;89.50;;;;;;5090489;28;20078;-48
2022/06/20 09:04:33;;;;;;;7.13;2.05;;;21.10;89.20;;;;;;5090322;28;20087;-49
2022/06/20 09:07:27;;;;;;;5.40;1.80;;;21.10;88.10;;;;;;5090477;28;20044;-48
2022/06/20 09:10:11;;;;;;;6.40;2.03;;;20.70;88.30;;;;;;5090381;28;20124;-47
2022/06/20 09:13:08;;;;;;;4.95;1.83;;;20.50;88.70;;;;;;5090176;28;20127;-48
2022/06/20 09:15:55;;;;;;;6.75;2.25;;;20.50;90.00;;;;;;5090202;28;20086;-50
2022/06/20 09:18:21;;;;;;;3.45;1.60;;;20.70;86.60;;;;;;5089962;28;20060;-49
2022/06/20 09:21:16;;;;;;;2.72;1.50;;;20.90;85.60;;;;;;5089774;28;20044;-53
2022/06/20 09:24:00;;;;;;;5.18;1.67;;;20.80;85.00;;;;;;5088749;28;20044;-48
2022/06/20 09:26:46;;;;;;;4.35;1.75;;;21.10;85.80;;;;;;5089763;28;20101;-47
2022/06/20 09:29:44;;;;;;;6.05;2.10;;;21.40;87.20;;;;;;5090333;28;20070;-49
2022/06/20 09:32:15;;;;;;;5.82;2.53;;;20.90;85.70;;;;;;5089233;28;20052;-48
2022/06/20 09:35:10;;;;;;;5.05;1.92;;;20.40;85.70;;;;;;5089811;28;20047;-49
2022/06/20 09:37:57;;;;;;;5.72;1.65;;;20.60;87.30;;;;;;5089822;28;20040;-52
2022/06/20 09:40:41;;;;;;;;;;;20.70;85.60;;;;;;5090163;28;20041;-54
2022/06/20 09:43:18;;;;;;;6.63;1.25;;;20.90;82.40;;;;;;5090019;28;20349;-48
2022/06/20 09:46:01;;;;;;;;;;;21.20;83.60;;;;;;5090062;28;20072;-48
2022/06/20 09:48:27;;;;;;;5.28;1.60;;;21.30;85.80;;;;;;5089350;28;20419;-48
2022/06/20 09:51:12;;;;;;;3.80;1.45;;;21.10;84.60;;;;;;5088377;28;20076;-48
2022/06/20 09:54:02;;;;;;;3.17;1.20;;;21.00;82.90;;;;;;5089335;28;20178;-47
2022/06/20 09:56:43;;;;;;;4.70;1.40;;;21.00;80.40;;;;;;5089461;28;20173;-50
2022/06/20 09:59:33;;;;;;;4.57;1.33;;;20.50;76.30;;;;;;5089182;28;20051;-49
2022/06/20 10:02:05;;;;;;;3.28;1.20;;;;;;;;;;5089030;28;20483;-49
2022/06/20 10:04:59;;;;;;;3.95;1.52;;;20.20;80.80;;;;;;5076791;28;20044;-50
2022/06/20 10:07:45;;;;;;;6.35;1.55;;;20.30;82.60;;;;;;5075834;28;20077;-54
2022/06/20 10:10:16;;;;;;;3.25;1.67;;;20.80;84.00;;;;;;5075601;28;20059;-52
2022/06/20 10:12:44;;;;;;;5.65;1.13;;;21.00;84.80;;;;;;5075383;28;20071;-50
2022/06/20 10:15:14;;;;;;;2.00;1.02;;;21.30;81.90;;;;;;5074199;28;20075;-52
2022/06/20 10:18:01;;;;;;;3.03;1.10;;;21.20;78.90;;;;;;5075466;28;20040;-50
2022/06/20 10:21:18;;;;;;;5.15;1.30;;;21.20;79.30;;;;;;5075371;28;20041;-50
2022/06/20 10:24:07;;;;;;;4.28;1.15;;;21.60;80.20;;;;;;5065981;28;20229;-48
2022/06/20 10:26:57;;;;;;;5.53;1.58;;;20.90;81.30;;;;;;5075292;28;20094;-48
2022/06/20 10:29:46;;;;;;;3.10;1.20;;;20.90;81.30;;;;;;5075172;28;20119;-49
2022/06/20 10:32:26;;;;;;;3.10;1.10;;;21.40;81.90;;;;;;5075208;28;20052;-48
2022/06/20 10:35:17;;;;;;;5.57;1.27;;;21.20;79.40;;;;;;5075308;28;20090;-48
2022/06/20 10:38:12;;;;;;;3.42;1.20;;;21.30;80.50;;;;;;5074017;28;20044;-47
2022/06/20 10:41:01;;;;;;;3.45;1.33;;;20.80;79.60;;;;;;5074939;28;20044;-48
2022/06/20 10:44:00;;;;;;;4.68;1.40;;;20.30;79.60;;;;;;5073567;28;20129;-48
2022/06/20 10:46:43;;;;;;;2.45;1.33;;;20.20;81.70;;;;;;5075054;28;20048;-50
2022/06/20 10:49:26;;;;;;;4.60;1.42;;;20.50;83.50;;;;;;5074893;28;20040;-53
2022/06/20 10:52:04;;;;;;;4.80;1.40;;;20.50;83.70;;;;;;5074570;28;20056;-49
2022/06/20 10:54:49;;;;;;;;;;;20.40;83.40;;;;;;5075053;28;20465;-48
2022/06/20 10:57:33;;;;;;;4.88;1.55;;;20.50;84.00;;;;;;5074153;28;19960;-49
2022/06/20 11:00:02;;;;;;;4.28;1.40;;;21.10;85.10;;;;;;5074510;28;20033;-49
2022/06/20 11:02:28;;;;;;;5.15;1.58;;;20.90;84.80;;;;;;5074848;28;20064;-49
2022/06/20 11:05:17;;;;;;;3.58;1.50;;;20.80;84.40;;;;;;5074421;28;20043;-48
2022/06/20 11:07:49;;;;;;;5.03;1.40;;;20.70;84.50;;;;;;5074569;28;20111;-48
2022/06/20 11:10:46;;;;;;;3.67;1.45;;;21.10;84.80;;;;;;5074521;28;20064;-48
2022/06/20 11:13:12;;;;;;;7.38;1.80;;;21.80;83.80;;;;;;5074265;28;20166;-50
2022/06/20 11:16:10;;;;;;;4.03;1.40;;;21.80;82.80;;;;;;5073371;28;21091;-49
2022/06/20 11:18:56;;;;;;;5.82;1.48;;;21.70;82.50;;;;;;5074367;28;20087;-51
2022/06/20 11:21:51;;;;;;;6.03;1.50;;;21.80;80.30;;;;;;5074106;28;20101;-49
2022/06/20 11:24:38;;;;;;;3.33;1.20;;;21.60;81.50;;;;;;5074317;28;20463;-49
2022/06/20 11:27:24;;;;;;;4.45;1.60;;;21.90;79.50;;;;;;5074165;28;20044;-49
2022/06/20 11:30:35;;;;;;;3.90;1.30;;;21.40;77.80;;;;;;5074111;28;20048;-50
2022/06/20 11:34:00;;;;;;;5.53;1.55;;;21.80;80.00;;;;;;5065353;28;20571;-52
2022/06/20 11:36:16;;;;;;;3.67;1.20;;;21.70;80.20;;;;;;5073643;28;20076;-49
2022/06/20 11:39:01;;;;;;;3.70;1.30;;;21.90;77.90;;;;;;5073619;28;20052;-49
2022/06/20 11:41:37;;;;;;;4.35;1.50;;;21.70;78.50;;;;;;5073652;28;20036;-49
2022/06/20 11:44:30;;;;;;;4.32;1.52;;;21.00;80.20;;;;;;5073838;28;20403;-48
2022/06/20 11:47:14;;;;;;;3.22;1.00;;;21.20;81.10;;;;;;5073849;28;20101;-48
2022/06/20 11:50:01;;;;;;;4.88;1.50;;;21.10;81.00;;;;;;5073700;28;20051;-48
2022/06/20 11:52:43;;;;;;;4.78;1.20;;;20.70;81.90;;;;;;5073729;28;20061;-47
2022/06/20 11:55:12;;;;;;;3.42;1.30;;;21.30;80.00;;;;;;5073474;28;20127;-48
2022/06/20 11:57:47;;;;;;;5.93;1.30;;;21.80;80.80;;;;;;5073523;28;20467;-50
2022/06/20 12:00:21;;;;;;;6.00;1.45;;;21.20;78.50;;;;;;5073700;28;20040;-47
2022/06/20 12:02:56;;;;;;;6.30;1.60;;;21.20;80.40;;;;;;5073454;28;20047;-49
2022/06/20 12:05:47;;;;;;;4.80;1.70;;;21.20;82.50;;;;;;5073324;28;20070;-48
2022/06/20 12:08:36;;;;;;;3.88;1.55;;;21.30;82.80;;;;;;5073564;28;20124;-49
2022/06/20 12:11:31;;;;;;;6.63;2.20;;;21.50;83.40;;;;;;5050931;28;20056;-49
2022/06/20 12:14:12;;;;;;;6.78;1.90;;;21.30;83.10;;;;;;4972217;28;20113;-51
2022/06/20 12:16:59;;;;;;;5.60;1.50;;;21.50;81.30;;;;;;4972358;28;20457;-47
2022/06/20 12:25:39;;;;;;;7.45;1.80;;;21.70;82.30;;;;;;4971913;28;20043;-49
2022/06/20 12:28:18;;;;;;;7.30;1.92;;;21.70;83.40;;;;;;4972045;28;20383;-50
2022/06/20 12:30:54;;;;;;;7.80;1.60;;;21.90;79.20;;;;;;4972172;28;20051;-49
2022/06/20 12:33:20;;;;;;;5.80;1.25;;;21.90;78.90;;;;;;4972020;28;20047;-49
2022/06/20 12:35:54;;;;;;;7.45;1.75;;;21.90;79.30;;;;;;4972191;28;20054;-49
2022/06/20 12:38:43;;;;;;;5.95;1.90;;;22.10;80.00;;;;;;4971938;28;20062;-48
2022/06/20 12:41:15;;;;;;;3.05;1.27;;;22.20;78.00;;;;;;4972001;28;20121;-51
2022/06/20 12:44:17;;;;;;;11.25;2.42;;;22.20;81.40;;;;;;4971967;28;20059;-51
2022/06/20 12:47:33;;;;;;;3.05;1.25;;;21.90;79.30;;;;;;4972030;28;20047;-47
2022/06/20 12:50:22;;;;;;;8.10;1.92;;;21.50;81.50;;;;;;5019589;28;20048;-53
2022/06/20 12:53:13;;;;;;;5.47;1.90;;;21.30;81.90;;;;;;5072851;28;20064;-50
2022/06/20 12:56:09;;;;;;;7.90;2.00;;;20.90;80.10;;;;;;5073071;28;20052;-50
2022/06/20 12:59:08;;;;;;;8.38;1.80;;;21.20;80.80;;;;;;5072829;28;20041;-52
2022/06/20 13:01:48;;;;;;;7.18;1.80;;;21.40;79.90;;;;;;5072725;28;20049;-51
2022/06/20 13:04:20;;;;;;;5.70;1.52;;;21.40;79.10;;;;;;5072950;28;20037;-50
2022/06/20 13:07:24;;;;;;;6.43;1.33;;;21.40;80.00;;;;;;5072778;28;20040;-49
2022/06/20 13:10:30;;;;;;;3.67;1.40;;;21.10;78.80;;;;;;5072706;28;20502;-52
2022/06/20 13:13:26;;;;;;;6.10;2.00;;;21.30;81.10;;;;;;5066252;28;20098;-51
2022/06/20 13:16:05;;;;;;;4.05;1.58;;;21.50;80.40;;;;;;5072516;28;20509;-50
2022/06/20 13:18:41;;;;;;;3.85;1.50;;;21.80;79.60;;;;;;5072684;28;20056;-52
2022/06/20 13:21:16;;;;;;;6.30;1.65;;;21.90;77.70;;;;;;5072666;28;20076;-51
2022/06/20 13:23:59;;;;;;;8.10;1.42;;;22.20;78.90;;;;;;5072899;28;20040;-51
2022/06/20 13:26:56;;;;;;;17.52;2.10;;;22.20;79.90;;;;;;5072515;28;20040;-51
2022/06/20 13:29:33;;;;;;;6.40;1.80;;;22.20;79.40;;;;;;5063990;28;20140;-48
2022/06/20 13:32:20;;;;;;;7.53;1.90;;;22.60;79.50;;;;;;5071292;28;20048;-48
2022/06/20 13:34:59;;;;;;;3.60;1.42;;;22.30;79.40;;;;;;5072738;28;20067;-52
2022/06/20 13:37:25;;;;;;;3.95;1.40;;;22.60;79.10;;;;;;5072468;28;20102;-49
2022/06/20 13:40:11;;;;;;;5.57;1.60;;;22.40;80.00;;;;;;5075508;28;20040;-52
2022/06/20 13:42:53;;;;;;;4.38;1.48;;;22.30;79.30;;;;;;5076179;28;20048;-49
2022/06/20 13:45:26;;;;;;;11.88;2.28;;;22.00;78.20;;;;;;5076196;28;20048;-52
2022/06/20 13:48:13;;;;;;;8.60;2.03;;;22.00;80.30;;;;;;5076052;28;20044;-52
2022/06/20 13:50:55;;;;;;;3.63;1.40;;;21.80;79.80;;;;;;5075846;28;20517;-51
2022/06/20 13:53:28;;;;;;;5.18;1.40;;;21.50;80.70;;;;;;5035752;28;20050;-49
2022/06/20 13:56:22;;;;;;;4.57;1.85;;;21.30;81.00;;;;;;5034939;28;20053;-50
2022/06/20 13:59:01;;;;;;;7.95;1.75;;;21.30;81.40;;;;;;5035882;28;20106;-53